Time;durP1;ratioP1;P1;durP2;ratioP2;P2;SDS_P1;SDS_P2;PMS_P1;PMS_P2;Temp;Humidity;BMP_temperature;BMP_pressure;BME280_temperature;BME280_humidity;BME280_pressure;Samples;Min_cycle;Max_cycle;Signal;HPM_P1;HPM_P2
2021/11/10 00:02:05;;;;;;;6.23;4.87;;;2.50;99.90;;;;;;5033932;28;20562;-63
2021/11/10 00:04:31;;;;;;;6.20;4.27;;;2.50;99.90;;;;;;5033903;28;20448;-64
2021/11/10 00:06:57;;;;;;;4.03;3.63;;;2.50;99.90;;;;;;5033371;28;20174;-63
2021/11/10 00:09:22;;;;;;;4.37;3.97;;;2.50;99.90;;;;;;5033609;28;20474;-64
2021/11/10 00:11:48;;;;;;;7.40;4.17;;;;;;;;;;5015917;28;20174;-64
2021/11/10 00:14:14;;;;;;;6.85;4.40;;;2.40;99.90;;;;;;5033826;28;20174;-64
2021/11/10 00:16:40;;;;;;;8.30;3.60;;;2.40;99.90;;;;;;5033444;28;20296;-63
2021/11/10 00:19:06;;;;;;;6.07;4.40;;;2.50;99.90;;;;;;5033241;28;20213;-64
2021/11/10 00:21:32;;;;;;;5.03;4.07;;;2.40;99.90;;;;;;5033687;28;20181;-63
2021/11/10 00:23:59;;;;;;;4.05;3.75;;;2.30;99.90;;;;;;5033402;28;20260;-63
2021/11/10 00:26:25;;;;;;;9.75;4.50;;;2.30;99.90;;;;;;5031951;28;20634;-63
2021/11/10 00:28:51;;;;;;;5.93;3.93;;;2.30;99.90;;;;;;5033555;28;20200;-63
2021/11/10 00:31:18;;;;;;;7.30;4.25;;;2.30;99.90;;;;;;5033797;28;20767;-63
2021/11/10 00:33:44;;;;;;;4.10;3.70;;;2.30;99.90;;;;;;5034335;28;20174;-63
2021/11/10 00:36:10;;;;;;;6.30;5.70;;;2.30;99.90;;;;;;5033886;28;20177;-63
2021/11/10 00:38:37;;;;;;;6.83;4.40;;;2.20;99.90;;;;;;5015890;28;20189;-65
2021/11/10 00:41:03;;;;;;;3.80;3.00;;;2.20;99.90;;;;;;5040503;28;20420;-63
2021/11/10 00:43:29;;;;;;;4.63;2.70;;;2.20;99.90;;;;;;5054910;28;20205;-64
2021/11/10 00:45:55;;;;;;;5.27;3.13;;;2.10;99.90;;;;;;5058977;28;20282;-63
2021/11/10 00:48:20;;;;;;;5.93;5.40;;;2.10;99.90;;;;;;5065456;28;20526;-63
2021/11/10 00:50:46;;;;;;;5.80;4.13;;;2.10;99.90;;;;;;5069875;28;20188;-64
2021/11/10 00:53:13;;;;;;;4.20;3.90;;;2.10;99.90;;;;;;5072406;28;20188;-63
2021/11/10 00:55:40;;;;;;;3.92;3.58;;;2.10;99.90;;;;;;5069717;28;20188;-65
2021/11/10 00:58:06;;;;;;;7.35;4.10;;;2.10;99.90;;;;;;5069375;28;20623;-63
2021/11/10 01:00:32;;;;;;;4.57;4.13;;;2.10;99.90;;;;;;5067645;28;20180;-64
2021/11/10 01:02:58;;;;;;;3.83;3.63;;;2.00;99.90;;;;;;5070932;28;20302;-63
2021/11/10 01:05:24;;;;;;;6.27;3.53;;;2.00;99.90;;;;;;5070004;28;20399;-65
2021/11/10 01:07:50;;;;;;;2.83;2.55;;;2.00;99.90;;;;;;5067117;28;20429;-64
2021/11/10 01:10:16;;;;;;;4.93;4.10;;;2.00;99.90;;;;;;5059565;28;20231;-64
2021/11/10 01:12:42;;;;;;;10.23;3.53;;;2.00;99.90;;;;;;5059722;28;20790;-62
2021/11/10 01:15:10;;;;;;;4.40;3.30;;;2.00;99.90;;;;;;5059731;28;20188;-63
2021/11/10 01:17:37;;;;;;;4.32;3.92;;;2.10;99.90;;;;;;5058946;28;20493;-61
2021/11/10 01:20:05;;;;;;;4.07;3.70;;;2.10;99.90;;;;;;5059573;28;20692;-63
2021/11/10 01:22:31;;;;;;;3.40;3.10;;;2.10;99.90;;;;;;5059719;28;20224;-63
2021/11/10 01:24:58;;;;;;;4.97;4.55;;;2.10;99.90;;;;;;5059546;28;20201;-63
2021/11/10 01:27:23;;;;;;;6.50;3.60;;;2.10;99.90;;;;;;5041128;28;20240;-63
2021/11/10 01:29:50;;;;;;;3.73;3.20;;;2.10;99.90;;;;;;5059206;28;20255;-62
2021/11/10 01:32:15;;;;;;;3.28;2.90;;;2.10;99.90;;;;;;5059559;28;20174;-63
2021/11/10 01:34:41;;;;;;;5.27;2.77;;;2.00;99.90;;;;;;5059470;28;20169;-63
2021/11/10 01:37:07;;;;;;;4.20;3.80;;;2.10;99.90;;;;;;5059161;28;20180;-63
2021/11/10 01:39:32;;;;;;;4.40;3.37;;;2.10;99.90;;;;;;5059043;28;20597;-63
2021/11/10 01:42:03;;;;;;;3.33;3.07;;;2.10;99.90;;;;;;5048405;28;20189;-63
2021/11/10 01:44:30;;;;;;;3.95;3.63;;;2.00;99.90;;;;;;5039390;28;20170;-64
2021/11/10 01:46:58;;;;;;;3.10;2.85;;;2.00;99.90;;;;;;5038665;28;20173;-63
2021/11/10 01:49:24;;;;;;;6.70;3.92;;;1.90;99.90;;;;;;5039209;28;20190;-64
2021/11/10 01:51:52;;;;;;;7.40;4.93;;;1.90;99.90;;;;;;5039241;28;20212;-65
2021/11/10 01:54:24;;;;;;;3.45;3.25;;;1.90;99.90;;;;;;5039121;28;20806;-64
2021/11/10 01:56:51;;;;;;;4.03;3.40;;;1.90;99.90;;;;;;5039429;28;20185;-64
2021/11/10 01:59:39;;;;;;;5.18;4.68;;;1.80;99.90;;;;;;5037958;28;20201;-66
2021/11/10 02:02:08;;;;;;;5.53;4.10;;;1.80;99.90;;;;;;5035567;28;20289;-63
2021/11/10 02:04:35;;;;;;;2.58;2.38;;;1.80;99.90;;;;;;5036055;28;20514;-64
2021/11/10 02:07:02;;;;;;;4.28;3.20;;;1.80;99.90;;;;;;5035612;28;20166;-64
2021/11/10 02:09:28;;;;;;;2.60;2.30;;;1.80;99.90;;;;;;5017896;28;20693;-64
2021/11/10 02:11:56;;;;;;;2.88;2.65;;;1.80;99.90;;;;;;5036082;28;20208;-63
2021/11/10 02:14:23;;;;;;;4.88;2.80;;;1.80;99.90;;;;;;5035440;28;20260;-63
2021/11/10 02:16:51;;;;;;;3.30;3.10;;;1.80;99.90;;;;;;5035291;28;20313;-65
2021/11/10 02:19:18;;;;;;;4.03;3.65;;;1.80;99.90;;;;;;5035768;28;20194;-63
2021/11/10 02:21:48;;;;;;;2.90;2.70;;;1.80;99.90;;;;;;5035522;28;20205;-63
2021/11/10 02:24:15;;;;;;;7.00;2.28;;;1.80;99.90;;;;;;5035424;28;20166;-63
2021/11/10 02:26:42;;;;;;;4.05;3.63;;;1.80;99.90;;;;;;5035261;28;20213;-63
2021/11/10 02:29:10;;;;;;;6.35;4.45;;;1.80;99.90;;;;;;5035503;28;20198;-63
2021/11/10 02:31:36;;;;;;;3.17;2.97;;;1.80;99.90;;;;;;5035428;28;20173;-63
2021/11/10 02:34:04;;;;;;;5.47;4.55;;;1.70;99.90;;;;;;5035472;28;20178;-62
2021/11/10 02:36:31;;;;;;;4.00;3.65;;;1.70;99.90;;;;;;5035093;28;20186;-63
2021/11/10 02:39:00;;;;;;;3.00;2.83;;;1.70;99.90;;;;;;5035266;28;20598;-63
2021/11/10 02:41:27;;;;;;;3.10;2.40;;;1.60;99.90;;;;;;5041525;28;20177;-63
2021/11/10 02:43:54;;;;;;;2.05;1.95;;;1.60;99.90;;;;;;5055118;28;20291;-63
2021/11/10 02:46:20;;;;;;;4.53;2.83;;;1.60;99.90;;;;;;5054788;28;20172;-63
2021/11/10 02:48:45;;;;;;;3.23;2.90;;;1.70;99.90;;;;;;5055142;28;20256;-63
2021/11/10 02:51:11;;;;;;;3.70;3.07;;;1.70;99.90;;;;;;5054751;28;20166;-63
2021/11/10 02:53:37;;;;;;;3.87;3.13;;;1.70;99.90;;;;;;5055036;28;20180;-63
2021/11/10 02:56:03;;;;;;;2.67;2.53;;;1.70;99.90;;;;;;5054733;28;20657;-63
2021/11/10 02:58:33;;;;;;;3.10;2.85;;;1.70;99.90;;;;;;5054403;28;20196;-63
2021/11/10 03:00:59;;;;;;;4.05;2.65;;;1.70;99.90;;;;;;5054935;28;20169;-63
2021/11/10 03:03:25;;;;;;;6.45;2.20;;;1.60;99.90;;;;;;5054632;28;20664;-63
2021/11/10 03:05:52;;;;;;;4.90;2.60;;;1.60;99.90;;;;;;5054782;28;20211;-63
2021/11/10 03:08:19;;;;;;;3.35;3.15;;;1.60;99.90;;;;;;5054251;28;20205;-63
2021/11/10 03:10:46;;;;;;;3.92;3.08;;;1.50;99.90;;;;;;5054152;28;20169;-63
2021/11/10 03:13:13;;;;;;;3.92;3.63;;;1.50;99.90;;;;;;5054429;28;20174;-62
2021/11/10 03:15:40;;;;;;;3.00;2.80;;;1.50;99.90;;;;;;5054644;28;20664;-63
2021/11/10 03:18:06;;;;;;;4.50;3.83;;;1.50;99.90;;;;;;5036072;28;20244;-63
2021/11/10 03:20:32;;;;;;;4.00;3.28;;;1.50;99.90;;;;;;5054466;28;20199;-63
2021/11/10 03:22:59;;;;;;;3.87;3.10;;;1.40;99.90;;;;;;5054253;28;20259;-63
2021/11/10 03:25:25;;;;;;;5.57;3.78;;;1.50;99.90;;;;;;5054259;28;20443;-63
2021/11/10 03:27:51;;;;;;;3.23;2.63;;;1.50;99.90;;;;;;5053823;28;20228;-63
2021/11/10 03:30:16;;;;;;;4.57;4.17;;;1.60;99.90;;;;;;5054419;28;20457;-63
2021/11/10 03:32:42;;;;;;;2.40;2.30;;;1.50;99.90;;;;;;5054385;28;20633;-63
2021/11/10 03:35:09;;;;;;;9.13;2.70;;;1.50;99.90;;;;;;5054361;28;20434;-63
2021/11/10 03:37:35;;;;;;;3.10;2.80;;;1.50;99.90;;;;;;5053461;28;20251;-62
2021/11/10 03:40:03;;;;;;;3.80;2.63;;;1.50;99.90;;;;;;5053779;28;20598;-64
2021/11/10 03:42:29;;;;;;;4.95;3.15;;;1.50;99.90;;;;;;5021341;28;20269;-63
2021/11/10 03:44:54;;;;;;;7.20;3.73;;;1.50;99.90;;;;;;5034146;28;20214;-64
2021/11/10 03:47:20;;;;;;;5.03;3.50;;;1.50;99.90;;;;;;5033894;28;20405;-63
2021/11/10 03:49:45;;;;;;;6.07;3.53;;;1.50;99.90;;;;;;5033756;28;20177;-63
2021/11/10 03:52:14;;;;;;;3.23;3.00;;;1.50;99.90;;;;;;5033851;28;20542;-63
2021/11/10 03:54:40;;;;;;;8.82;4.30;;;1.50;99.90;;;;;;5033835;28;20178;-63
2021/11/10 03:57:06;;;;;;;6.28;5.85;;;1.60;99.90;;;;;;5033607;28;20262;-63
2021/11/10 03:59:32;;;;;;;3.33;3.13;;;1.50;99.90;;;;;;5033811;28;20649;-63
2021/11/10 04:01:58;;;;;;;5.23;3.50;;;1.60;99.90;;;;;;5033682;28;20499;-64
2021/11/10 04:04:23;;;;;;;3.30;2.63;;;1.50;99.90;;;;;;5033823;28;20710;-63
2021/11/10 04:06:49;;;;;;;8.53;3.63;;;1.60;99.90;;;;;;5033213;28;20198;-64
2021/11/10 04:09:15;;;;;;;4.05;3.70;;;1.60;99.90;;;;;;5033668;28;20190;-63
2021/11/10 04:11:41;;;;;;;4.77;3.87;;;1.60;99.90;;;;;;5033462;28;20193;-63
2021/11/10 04:14:06;;;;;;;3.60;2.93;;;1.50;99.90;;;;;;5033503;28;20177;-64
2021/11/10 04:16:32;;;;;;;3.10;2.90;;;1.50;99.90;;;;;;5033083;28;20185;-63
2021/11/10 04:18:59;;;;;;;3.03;2.73;;;1.50;99.90;;;;;;5033516;28;20678;-63
2021/11/10 04:21:25;;;;;;;6.10;4.30;;;1.50;99.90;;;;;;5033494;28;20158;-63
2021/11/10 04:23:53;;;;;;;6.03;4.10;;;1.60;99.90;;;;;;5014874;28;20240;-63
2021/11/10 04:26:21;;;;;;;4.80;4.30;;;1.50;99.90;;;;;;5015293;28;20166;-63
2021/11/10 04:28:47;;;;;;;5.63;4.13;;;1.60;99.90;;;;;;5033370;28;20593;-63
2021/11/10 04:31:13;;;;;;;2.57;2.37;;;1.60;99.90;;;;;;5033185;28;20252;-63
2021/11/10 04:33:38;;;;;;;6.30;3.47;;;1.60;99.90;;;;;;5033203;28;20666;-63
2021/11/10 04:36:05;;;;;;;3.83;3.53;;;1.60;99.90;;;;;;5033194;28;20508;-63
2021/11/10 04:38:31;;;;;;;3.92;3.35;;;1.60;99.90;;;;;;5032628;28;20474;-63
2021/11/10 04:40:56;;;;;;;4.80;4.30;;;1.60;99.90;;;;;;5035438;28;20174;-63
2021/11/10 04:43:22;;;;;;;7.03;3.53;;;1.60;99.90;;;;;;5052971;28;20982;-63
2021/11/10 04:45:52;;;;;;;7.30;2.87;;;1.70;99.90;;;;;;5053017;28;20592;-63
2021/11/10 04:48:18;;;;;;;3.60;3.30;;;1.60;99.90;;;;;;5051280;28;20458;-64
2021/11/10 04:50:46;;;;;;;3.72;3.28;;;1.60;99.90;;;;;;5052504;28;20184;-63
2021/11/10 04:53:12;;;;;;;4.22;3.65;;;1.60;99.90;;;;;;5053141;28;20185;-63
2021/11/10 04:55:39;;;;;;;6.65;3.58;;;1.60;99.90;;;;;;5052859;28;20570;-63
2021/11/10 04:58:05;;;;;;;3.35;3.10;;;1.50;99.90;;;;;;5052426;28;20199;-63
2021/11/10 05:00:31;;;;;;;3.50;3.20;;;1.50;99.90;;;;;;5053031;28;20556;-63
2021/11/10 05:02:56;;;;;;;4.27;3.30;;;1.60;99.90;;;;;;5049428;28;20243;-63
2021/11/10 05:05:22;;;;;;;9.03;4.50;;;1.60;99.90;;;;;;5050663;28;20552;-63
2021/11/10 05:07:49;;;;;;;6.38;4.63;;;1.60;99.90;;;;;;5050518;28;20834;-63
2021/11/10 05:10:15;;;;;;;4.13;3.80;;;1.60;99.90;;;;;;5050924;28;20162;-63
2021/11/10 05:12:41;;;;;;;2.53;2.33;;;1.60;99.90;;;;;;5053107;28;20260;-63
2021/11/10 05:15:07;;;;;;;4.97;3.50;;;1.70;99.90;;;;;;5052451;28;20235;-63
2021/11/10 05:17:33;;;;;;;4.78;3.85;;;1.70;99.90;;;;;;5052293;28;20193;-63
2021/11/10 05:19:59;;;;;;;11.93;3.92;;;1.70;99.90;;;;;;5051456;28;20538;-63
2021/11/10 05:22:24;;;;;;;9.50;4.97;;;1.70;99.90;;;;;;5052695;28;20201;-63
2021/11/10 05:24:50;;;;;;;3.73;3.40;;;1.60;99.90;;;;;;5052546;28;20177;-63
2021/11/10 05:27:16;;;;;;;7.93;3.73;;;1.60;99.90;;;;;;5052251;28;20197;-63
2021/11/10 05:29:42;;;;;;;4.77;3.97;;;1.60;99.90;;;;;;5052424;28;20649;-63
2021/11/10 05:32:08;;;;;;;3.07;2.87;;;1.50;99.90;;;;;;5052028;28;20180;-64
2021/11/10 05:34:33;;;;;;;5.50;3.83;;;1.40;99.90;;;;;;5053668;28;20638;-64
2021/11/10 05:36:59;;;;;;;5.13;4.53;;;1.40;99.90;;;;;;5055474;28;20231;-63
2021/11/10 05:39:25;;;;;;;3.53;2.67;;;1.40;99.90;;;;;;5056085;28;20205;-63
2021/11/10 05:41:50;;;;;;;4.87;3.23;;;1.30;99.90;;;;;;5046194;28;20184;-64
2021/11/10 05:44:16;;;;;;;2.73;2.53;;;1.30;99.90;;;;;;5035981;28;20183;-63
2021/11/10 05:46:43;;;;;;;4.90;4.50;;;1.30;99.90;;;;;;5035747;28;20283;-63
2021/11/10 05:49:08;;;;;;;4.25;3.85;;;1.20;99.90;;;;;;5036403;28;20433;-64
2021/11/10 05:51:35;;;;;;;4.40;2.67;;;1.20;99.90;;;;;;5036300;28;20178;-64
2021/11/10 05:54:01;;;;;;;16.05;3.60;;;1.20;99.90;;;;;;5036064;28;20443;-64
2021/11/10 05:56:28;;;;;;;7.65;4.47;;;1.20;99.90;;;;;;5035701;28;20257;-63
2021/11/10 05:58:58;;;;;;;4.30;3.92;;;1.20;99.90;;;;;;5036075;28;20186;-63
2021/11/10 06:01:25;;;;;;;5.10;4.40;;;1.20;99.90;;;;;;5035866;28;20174;-64
2021/11/10 06:03:51;;;;;;;5.75;5.07;;;1.20;99.90;;;;;;5035750;28;20691;-64
2021/11/10 06:06:17;;;;;;;4.75;4.25;;;1.20;99.90;;;;;;5017983;28;20170;-64
2021/11/10 06:08:42;;;;;;;5.07;4.33;;;1.20;99.90;;;;;;5035467;28;20570;-64
2021/11/10 06:11:10;;;;;;;6.40;3.90;;;1.20;99.90;;;;;;5035717;28;20185;-64
2021/11/10 06:13:37;;;;;;;4.60;4.15;;;1.30;99.90;;;;;;5035778;28;20538;-64
2021/11/10 06:16:04;;;;;;;9.80;4.35;;;1.20;99.90;;;;;;5035442;28;20262;-64
2021/11/10 06:18:29;;;;;;;4.60;4.13;;;1.20;99.90;;;;;;5035134;28;20204;-63
2021/11/10 06:20:56;;;;;;;4.20;3.27;;;1.20;99.90;;;;;;5035438;28;20257;-64
2021/11/10 06:23:22;;;;;;;3.38;3.08;;;1.20;99.90;;;;;;5034954;28;20206;-63
2021/11/10 06:25:48;;;;;;;6.60;3.17;;;1.20;99.90;;;;;;5034970;28;20197;-64
2021/11/10 06:28:14;;;;;;;5.10;4.70;;;1.30;99.90;;;;;;5034448;28;20549;-65
2021/11/10 06:30:40;;;;;;;7.07;5.72;;;1.30;99.90;;;;;;5032529;28;20410;-64
2021/11/10 06:33:06;;;;;;;8.98;6.10;;;1.30;99.90;;;;;;5032842;28;20176;-64
2021/11/10 06:35:32;;;;;;;9.13;4.23;;;1.30;99.90;;;;;;5032500;28;20642;-64
2021/11/10 06:37:57;;;;;;;3.70;3.07;;;1.30;99.90;;;;;;5032537;28;20518;-64
2021/11/10 06:40:23;;;;;;;5.73;4.77;;;1.40;99.90;;;;;;5033213;28;20744;-64
2021/11/10 06:42:49;;;;;;;4.17;3.17;;;1.30;99.90;;;;;;5050549;28;20669;-64
2021/11/10 06:45:14;;;;;;;5.63;5.03;;;1.40;99.90;;;;;;5054677;28;20688;-64
2021/11/10 06:47:41;;;;;;;6.20;4.53;;;1.40;99.90;;;;;;5053082;28;20221;-65
2021/11/10 06:50:08;;;;;;;5.63;4.57;;;1.40;99.90;;;;;;5054204;28;20211;-64
2021/11/10 06:52:33;;;;;;;5.32;4.53;;;1.40;99.90;;;;;;5054299;28;20702;-64
2021/11/10 06:54:59;;;;;;;6.00;4.10;;;1.50;99.90;;;;;;5054366;28;20261;-63
2021/11/10 06:57:25;;;;;;;9.80;6.03;;;1.70;99.90;;;;;;5053746;28;20440;-62
2021/11/10 06:59:51;;;;;;;7.57;4.73;;;1.70;99.90;;;;;;5054500;28;20220;-63
2021/11/10 07:02:17;;;;;;;9.27;5.38;;;1.80;99.90;;;;;;5054604;28;20817;-64
2021/11/10 07:04:43;;;;;;;6.65;5.78;;;1.90;99.90;;;;;;5053812;28;20165;-64
2021/11/10 07:07:09;;;;;;;7.03;6.20;;;2.00;99.90;;;;;;5053869;28;20172;-62
2021/11/10 07:09:35;;;;;;;5.90;5.40;;;2.10;99.90;;;;;;5047151;28;20941;-63
2021/11/10 07:12:01;;;;;;;9.40;6.05;;;2.20;99.90;;;;;;5034028;28;20190;-64
2021/11/10 07:14:28;;;;;;;7.70;5.43;;;2.30;99.90;;;;;;5033926;28;20186;-64
2021/11/10 07:16:54;;;;;;;11.63;6.00;;;2.40;99.90;;;;;;5033542;28;20178;-63
2021/11/10 07:19:21;;;;;;;7.32;5.68;;;2.60;99.90;;;;;;5033725;28;20658;-63
2021/11/10 07:21:47;;;;;;;7.50;6.70;;;2.70;99.90;;;;;;5016079;28;20634;-63
2021/11/10 07:24:12;;;;;;;6.80;5.35;;;2.80;99.90;;;;;;5033911;28;20190;-63
2021/11/10 07:26:38;;;;;;;11.40;6.90;;;3.00;99.90;;;;;;5033356;28;20225;-63
2021/11/10 07:29:04;;;;;;;7.00;6.33;;;3.20;99.90;;;;;;5033334;28;20199;-64
2021/11/10 07:31:30;;;;;;;8.40;6.63;;;3.40;99.90;;;;;;5033529;28;20439;-63
2021/11/10 07:33:59;;;;;;;10.90;7.07;;;3.70;99.90;;;;;;5033851;28;20469;-63
2021/11/10 07:36:25;;;;;;;10.27;7.10;;;4.00;99.90;;;;;;5033532;28;20539;-63
2021/11/10 07:38:51;;;;;;;10.35;7.50;;;4.30;99.90;;;;;;5032110;28;20624;-64
2021/11/10 07:41:18;;;;;;;8.37;6.90;;;4.60;99.90;;;;;;5032269;28;20170;-64
2021/11/10 07:43:44;;;;;;;9.82;7.10;;;4.80;99.90;;;;;;5033008;28;20254;-63
2021/11/10 07:46:15;;;;;;;11.75;6.97;;;4.90;99.90;;;;;;5033243;28;20187;-64
2021/11/10 07:48:42;;;;;;;8.90;5.75;;;5.10;99.90;;;;;;5033224;28;20207;-63
2021/11/10 07:51:08;;;;;;;7.20;6.03;;;5.30;99.90;;;;;;5032385;28;20243;-63
2021/11/10 07:53:35;;;;;;;7.35;6.07;;;5.50;99.90;;;;;;5033432;28;20191;-64
2021/11/10 07:56:01;;;;;;;5.80;5.22;;;5.70;99.90;;;;;;5033178;28;20542;-63
2021/11/10 07:58:27;;;;;;;10.50;6.53;;;5.90;99.90;;;;;;5031923;28;20584;-63
2021/11/10 08:00:53;;;;;;;9.40;6.93;;;6.00;99.90;;;;;;5032889;28;20300;-64
2021/11/10 08:03:18;;;;;;;6.67;5.50;;;6.10;99.90;;;;;;5033195;28;20212;-63
2021/11/10 08:05:44;;;;;;;7.00;6.30;;;6.30;99.90;;;;;;5033000;28;20765;-63
2021/11/10 08:08:10;;;;;;;8.07;4.53;;;6.70;99.90;;;;;;5032860;28;20208;-64
2021/11/10 08:10:36;;;;;;;7.73;5.67;;;7.30;99.90;;;;;;5033087;28;20530;-63
2021/11/10 08:13:02;;;;;;;7.00;5.70;;;7.90;99.90;;;;;;5031196;28;20244;-64
2021/11/10 08:15:28;;;;;;;7.65;5.80;;;8.50;99.90;;;;;;5029866;28;20696;-64
2021/11/10 08:17:54;;;;;;;8.00;5.30;;;9.10;99.90;;;;;;5030711;28;20269;-64
2021/11/10 08:20:20;;;;;;;8.13;4.30;;;9.50;99.90;;;;;;5032500;28;20387;-63
2021/11/10 08:22:48;;;;;;;8.90;5.43;;;9.40;99.90;;;;;;5033263;28;20478;-64
2021/11/10 08:25:16;;;;;;;6.50;5.50;;;9.50;99.90;;;;;;5033541;28;20186;-64
2021/11/10 08:27:43;;;;;;;8.90;6.00;;;9.40;99.90;;;;;;5032564;28;20945;-64
2021/11/10 08:30:13;;;;;;;11.38;4.90;;;9.40;99.90;;;;;;5032864;28;20182;-64
2021/11/10 08:32:39;;;;;;;9.68;6.00;;;9.40;99.90;;;;;;5032993;28;20189;-64
2021/11/10 08:35:05;;;;;;;10.68;5.78;;;9.20;99.90;;;;;;5032472;28;20170;-63
2021/11/10 08:37:31;;;;;;;7.68;6.55;;;9.00;99.90;;;;;;5031938;28;20202;-64
2021/11/10 08:39:58;;;;;;;10.32;6.57;;;8.80;99.90;;;;;;5032760;28;20546;-64
2021/11/10 08:42:29;;;;;;;6.72;5.82;;;8.60;99.90;;;;;;5032825;28;20221;-63
2021/11/10 08:44:57;;;;;;;6.40;5.80;;;8.50;99.90;;;;;;5032828;28;20259;-63
2021/11/10 08:47:23;;;;;;;7.30;5.93;;;8.30;99.90;;;;;;5032065;28;20205;-63
2021/11/10 08:49:49;;;;;;;7.60;6.20;;;8.10;99.90;;;;;;5032605;28;20251;-63
2021/11/10 08:52:15;;;;;;;5.85;5.15;;;7.90;99.90;;;;;;5032771;28;20861;-63
2021/11/10 08:54:41;;;;;;;7.65;6.32;;;7.80;99.90;;;;;;5032567;28;20235;-64
2021/11/10 08:57:07;;;;;;;6.80;5.30;;;7.80;99.90;;;;;;5032103;28;20341;-62
2021/11/10 08:59:33;;;;;;;7.10;5.83;;;7.80;99.90;;;;;;5032976;28;20225;-63
2021/11/10 09:01:58;;;;;;;8.53;6.13;;;7.70;99.90;;;;;;5033019;28;20421;-63
2021/11/10 09:04:24;;;;;;;6.00;5.50;;;7.70;99.90;;;;;;5032788;28;20174;-63
2021/11/10 09:06:51;;;;;;;7.13;6.13;;;7.60;99.90;;;;;;5032359;28;20462;-64
2021/11/10 09:09:17;;;;;;;5.85;5.18;;;7.50;99.90;;;;;;5033271;28;20224;-62
2021/11/10 09:11:45;;;;;;;5.82;5.32;;;7.40;99.90;;;;;;5036530;28;20193;-63
2021/11/10 09:14:10;;;;;;;9.23;5.72;;;7.20;99.90;;;;;;5036093;28;20185;-63
2021/11/10 09:16:36;;;;;;;7.80;5.47;;;7.00;99.90;;;;;;5035166;28;20181;-63
2021/11/10 09:19:03;;;;;;;6.17;5.60;;;6.90;99.90;;;;;;5034159;28;20189;-63
2021/11/10 09:21:29;;;;;;;6.25;5.47;;;6.90;99.90;;;;;;5034315;28;20820;-64
2021/11/10 09:23:55;;;;;;;5.23;4.70;;;6.80;99.90;;;;;;5016328;28;20205;-63
2021/11/10 09:26:20;;;;;;;7.27;6.57;;;6.60;99.90;;;;;;5034279;28;20381;-63
2021/11/10 09:28:46;;;;;;;8.17;4.87;;;6.50;99.90;;;;;;5034506;28;20190;-63
2021/11/10 09:31:12;;;;;;;8.63;5.77;;;6.50;99.90;;;;;;5035910;28;20185;-63
2021/11/10 09:33:42;;;;;;;7.38;5.75;;;6.40;99.90;;;;;;5036352;28;20194;-63
2021/11/10 09:36:08;;;;;;;12.52;6.18;;;6.50;99.90;;;;;;5035824;28;20178;-63
2021/11/10 09:38:35;;;;;;;10.35;8.52;;;6.60;99.90;;;;;;5035355;28;20202;-63
2021/11/10 09:41:03;;;;;;;9.82;7.40;;;6.60;99.90;;;;;;5035934;28;20196;-63
2021/11/10 09:43:32;;;;;;;10.82;6.90;;;6.70;99.90;;;;;;5035675;28;20289;-63
2021/11/10 09:45:59;;;;;;;7.60;6.57;;;6.80;99.90;;;;;;5035738;28;20181;-63
2021/11/10 09:48:25;;;;;;;8.52;7.70;;;6.90;99.90;;;;;;5035221;28;20190;-63
2021/11/10 09:50:52;;;;;;;13.55;6.03;;;6.80;99.90;;;;;;5035461;28;20273;-63
2021/11/10 09:53:18;;;;;;;8.07;5.72;;;7.00;99.90;;;;;;5035673;28;20236;-63
2021/11/10 09:55:44;;;;;;;8.23;5.45;;;7.00;99.90;;;;;;5035338;28;20554;-63
2021/11/10 09:58:10;;;;;;;10.52;6.30;;;7.10;99.90;;;;;;5035201;28;20221;-63
2021/11/10 10:00:52;;;;;;;9.63;5.93;;;7.30;99.90;;;;;;5035538;28;20174;-68
2021/11/10 10:03:18;;;;;;;4.95;4.15;;;7.30;99.90;;;;;;5035301;28;20444;-63
2021/11/10 10:05:45;;;;;;;6.35;5.47;;;7.30;99.90;;;;;;5035263;28;20657;-62
2021/11/10 10:08:12;;;;;;;4.97;4.55;;;7.30;99.90;;;;;;5035148;28;20197;-63
2021/11/10 10:10:40;;;;;;;7.68;6.45;;;7.30;99.90;;;;;;5035231;28;20173;-63
2021/11/10 10:13:07;;;;;;;9.73;7.25;;;7.40;99.90;;;;;;5035209;28;20174;-63
2021/11/10 10:15:36;;;;;;;6.28;5.25;;;7.40;99.90;;;;;;5035171;28;20190;-63
2021/11/10 10:18:11;;;;;;;8.80;6.90;;;7.40;99.90;;;;;;5034425;28;20554;-63
2021/11/10 10:20:38;;;;;;;9.05;6.50;;;7.30;99.90;;;;;;5034593;28;20177;-62
2021/11/10 10:23:10;;;;;;;6.63;5.90;;;7.30;99.90;;;;;;5034938;28;20202;-62
2021/11/10 10:25:53;;;;;;;7.28;6.50;;;7.40;99.90;;;;;;5035260;28;20215;-62
2021/11/10 10:28:37;;;;;;;9.20;6.85;;;7.50;99.90;;;;;;5018452;28;20204;-62
2021/11/10 10:31:05;;;;;;;8.20;6.97;;;7.50;99.90;;;;;;5034174;28;20261;-62
2021/11/10 10:33:34;;;;;;;16.85;6.80;;;7.50;99.90;;;;;;5034314;28;20273;-63
2021/11/10 10:36:13;;;;;;;7.47;6.70;;;7.50;99.90;;;;;;5034872;28;20217;-62
2021/11/10 10:38:48;;;;;;;6.00;5.30;;;7.50;99.90;;;;;;5036206;28;20214;-62
2021/11/10 10:41:16;;;;;;;9.25;6.35;;;7.50;99.90;;;;;;5035968;28;20181;-63
2021/11/10 10:43:47;;;;;;;8.10;6.55;;;7.50;99.90;;;;;;5034994;28;20283;-63
2021/11/10 10:46:15;;;;;;;9.98;7.47;;;7.50;99.90;;;;;;5034064;28;20174;-62
2021/11/10 10:48:41;;;;;;;10.43;9.43;;;7.60;99.90;;;;;;5034502;28;20198;-63
2021/11/10 10:51:17;;;;;;;8.23;7.00;;;7.60;99.90;;;;;;5034588;28;20181;-63
2021/11/10 10:53:52;;;;;;;8.90;6.05;;;7.70;99.90;;;;;;5033183;28;20264;-64
2021/11/10 10:56:22;;;;;;;8.57;7.15;;;7.80;99.90;;;;;;5034222;28;20253;-63
2021/11/10 10:58:56;;;;;;;9.05;6.85;;;7.90;99.90;;;;;;5034677;28;20197;-63
2021/11/10 11:01:26;;;;;;;8.85;6.13;;;8.00;99.90;;;;;;5034135;28;20186;-63
2021/11/10 11:04:02;;;;;;;11.32;8.13;;;8.10;99.90;;;;;;5034579;28;20209;-67
2021/11/10 11:06:35;;;;;;;14.77;6.43;;;8.20;99.90;;;;;;5034265;28;20162;-68
2021/11/10 11:09:24;;;;;;;7.80;6.55;;;8.40;99.90;;;;;;5034499;28;20194;-66
2021/11/10 11:12:05;;;;;;;11.65;8.85;;;8.50;99.90;;;;;;5033799;28;20166;-68
2021/11/10 11:15:04;;;;;;;7.63;6.70;;;8.60;99.90;;;;;;5034444;28;20162;-68
2021/11/10 11:17:33;;;;;;;8.48;6.10;;;8.60;99.90;;;;;;5020334;28;20281;-68
2021/11/10 11:20:19;;;;;;;9.68;6.47;;;8.70;99.90;;;;;;5034135;28;20550;-67
2021/11/10 11:22:44;;;;;;;9.13;7.18;;;8.80;99.90;;;;;;5034002;28;20210;-68
2021/11/10 11:25:10;;;;;;;6.67;5.93;;;8.70;99.90;;;;;;5033003;28;20174;-67
2021/11/10 11:27:36;;;;;;;8.57;6.10;;;8.80;99.90;;;;;;5033097;28;20197;-67
2021/11/10 11:30:10;;;;;;;9.17;7.47;;;9.00;99.90;;;;;;5033845;28;20300;-67
2021/11/10 11:32:39;;;;;;;8.05;6.45;;;9.10;99.90;;;;;;5033510;28;20631;-67
2021/11/10 11:35:19;;;;;;;7.97;6.90;;;9.10;99.90;;;;;;5033697;28;20178;-67
2021/11/10 11:37:45;;;;;;;8.27;5.95;;;9.00;99.90;;;;;;5033398;28;20228;-67
2021/11/10 11:40:16;;;;;;;11.63;8.07;;;9.10;99.90;;;;;;5033839;28;20193;-67
2021/11/10 11:42:43;;;;;;;6.30;5.43;;;9.20;99.90;;;;;;5033886;28;20206;-67
2021/11/10 11:45:10;;;;;;;8.63;6.35;;;9.10;99.90;;;;;;5033420;28;20167;-66
2021/11/10 11:47:37;;;;;;;6.88;5.47;;;9.20;99.90;;;;;;5033128;28;20265;-67
2021/11/10 11:50:04;;;;;;;19.90;7.97;;;9.10;99.90;;;;;;5033434;28;20190;-66
2021/11/10 11:52:32;;;;;;;10.43;7.40;;;9.10;99.90;;;;;;5033525;28;20174;-67
2021/11/10 11:55:05;;;;;;;7.95;6.72;;;9.20;99.90;;;;;;5033469;28;20170;-70
2021/11/10 11:57:32;;;;;;;7.63;6.93;;;9.20;99.90;;;;;;5033354;28;20269;-69
2021/11/10 12:00:00;;;;;;;11.18;8.15;;;9.30;99.90;;;;;;5033948;28;20170;-69
2021/11/10 12:02:30;;;;;;;11.95;8.02;;;9.30;99.90;;;;;;5033725;28;20531;-70
2021/11/10 12:04:57;;;;;;;14.77;7.38;;;9.40;99.90;;;;;;5033897;28;20673;-70
2021/11/10 12:07:43;;;;;;;14.43;8.35;;;9.40;99.90;;;;;;5033139;28;20178;-68
2021/11/10 12:10:20;;;;;;;8.85;6.22;;;9.60;99.90;;;;;;5033591;28;20575;-69
2021/11/10 12:12:47;;;;;;;9.18;7.53;;;9.70;99.90;;;;;;5032340;28;20177;-69
2021/11/10 12:15:14;;;;;;;10.18;7.07;;;9.70;99.90;;;;;;5033373;28;20530;-69
2021/11/10 12:18:05;;;;;;;9.23;8.05;;;9.70;99.90;;;;;;5033428;28;20232;-69
2021/11/10 12:20:41;;;;;;;11.05;6.93;;;9.60;99.90;;;;;;5033638;28;20174;-69
2021/11/10 12:23:07;;;;;;;9.13;6.25;;;9.50;99.90;;;;;;5033288;28;20197;-68
2021/11/10 12:25:33;;;;;;;8.07;7.30;;;9.50;99.90;;;;;;5033695;28;20229;-68
2021/11/10 12:27:59;;;;;;;9.80;7.77;;;9.40;99.90;;;;;;5032881;28;20431;-68
2021/11/10 12:30:30;;;;;;;8.77;7.83;;;9.50;99.90;;;;;;5033222;28;20499;-67
2021/11/10 12:32:58;;;;;;;11.02;7.50;;;9.50;99.90;;;;;;5033382;28;20182;-69
2021/11/10 12:35:31;;;;;;;10.65;8.05;;;9.40;99.90;;;;;;5033313;28;20638;-68
2021/11/10 12:37:59;;;;;;;10.73;6.80;;;9.40;99.90;;;;;;5031278;28;20210;-68
2021/11/10 12:40:43;;;;;;;11.32;8.07;;;9.40;99.90;;;;;;5033232;28;20166;-67
2021/11/10 12:43:13;;;;;;;10.05;8.02;;;9.40;99.90;;;;;;5033062;28;20193;-70
2021/11/10 12:45:55;;;;;;;11.55;8.32;;;9.30;99.90;;;;;;5032759;28;20241;-65
2021/11/10 12:48:36;;;;;;;10.02;7.38;;;9.30;99.90;;;;;;5032500;28;20197;-66
2021/11/10 12:51:22;;;;;;;11.77;8.13;;;9.40;99.90;;;;;;5032186;28;20177;-66
2021/11/10 12:53:54;;;;;;;10.50;7.15;;;9.40;99.90;;;;;;5032471;28;20193;-66
2021/11/10 12:56:41;;;;;;;9.55;7.15;;;9.40;99.90;;;;;;5032891;28;20174;-66
2021/11/10 12:59:09;;;;;;;8.02;6.10;;;9.50;99.90;;;;;;5031663;28;20597;-66